Terminal Aerodrome Forecast
Issued by NWS Cleveland, OH

Home | Current Version | Previous Version | Graphics & Text | Print | Product List | Glossary On
Versions: 1 2 3 4 5 6 7 8 9 10 11 12 13 14 15 16 17
609
FTUS41 KCLE 241126
TAFYNG
TAF
KYNG 241126Z 2412/2512 20008KT P6SM SCT035 BKN200
     FM242200 25008KT P6SM VCTS BKN040CB OVC060
     FM250100 20005KT P6SM FEW120 BKN200=

USA.gov is the U.S. government's official web portal to all federal, state and local government web resources and services.